Time;durP1;ratioP1;P1;durP2;ratioP2;P2;SDS_P1;SDS_P2;PMS_P1;PMS_P2;Temp;Humidity;BMP_temperature;BMP_pressure;BME280_temperature;BME280_humidity;BME280_pressure;Samples;Min_cycle;Max_cycle;Signal;HPM_P1;HPM_P2
2023/04/07 00:01:18;;;;;;;10.10;6.17;;;13.40;49.90;;;;;;5094876;27;21012;-83
2023/04/07 00:03:45;;;;;;;10.07;6.40;;;13.40;50.30;;;;;;5087595;28;20447;-83
2023/04/07 00:06:12;;;;;;;7.27;5.00;;;13.50;50.00;;;;;;5088662;28;20440;-84
2023/04/07 00:08:40;;;;;;;7.70;5.80;;;13.50;49.70;;;;;;5090480;28;20498;-83
2023/04/07 00:11:08;;;;;;;8.07;5.87;;;13.50;50.00;;;;;;5090941;28;21061;-85
2023/04/07 00:13:35;;;;;;;7.40;5.37;;;13.50;49.90;;;;;;5093711;27;20948;-85
2023/04/07 00:16:02;;;;;;;9.23;5.83;;;13.60;50.20;;;;;;5066142;28;20439;-83
2023/04/07 00:18:29;;;;;;;10.37;5.57;;;13.50;50.20;;;;;;5090726;28;20440;-83
2023/04/07 00:20:56;;;;;;;7.73;6.10;;;13.50;50.60;;;;;;5090606;28;20494;-84
2023/04/07 00:23:23;;;;;;;7.53;5.97;;;13.30;51.30;;;;;;5081527;28;20447;-84
2023/04/07 00:25:51;;;;;;;8.00;5.77;;;13.30;51.60;;;;;;5089880;28;20451;-85
2023/04/07 00:28:18;;;;;;;8.73;6.37;;;13.20;51.90;;;;;;5089846;28;20466;-84
2023/04/07 00:30:45;;;;;;;9.77;5.60;;;13.30;51.90;;;;;;5073172;28;20489;-83
2023/04/07 00:33:12;;;;;;;9.00;6.13;;;13.20;52.00;;;;;;5073562;28;20479;-84
2023/04/07 00:35:39;;;;;;;10.60;6.47;;;12.60;52.90;;;;;;5091691;28;21070;-85
2023/04/07 00:38:06;;;;;;;8.43;6.17;;;12.20;53.10;;;;;;5089711;28;20546;-85
2023/04/07 00:40:33;;;;;;;7.97;5.70;;;12.30;53.30;;;;;;5105080;28;20469;-84
2023/04/07 00:43:02;;;;;;;11.80;5.80;;;12.40;53.80;;;;;;5072582;28;20448;-84
2023/04/07 00:45:29;;;;;;;7.63;5.33;;;12.30;53.60;;;;;;5080430;28;20451;-84
2023/04/07 00:47:57;;;;;;;10.57;5.53;;;12.50;54.10;;;;;;5090553;28;20467;-85
2023/04/07 00:50:25;;;;;;;8.67;5.77;;;12.60;53.30;;;;;;5072947;28;20475;-83
2023/04/07 00:52:53;;;;;;;8.13;5.90;;;12.60;53.60;;;;;;5080070;28;20447;-85
2023/04/07 00:55:20;;;;;;;6.57;5.17;;;12.40;53.30;;;;;;5080224;28;21038;-84
2023/04/07 00:57:47;;;;;;;7.70;5.73;;;12.30;53.90;;;;;;5075341;28;21753;-83
2023/04/07 01:00:17;;;;;;;8.40;5.60;;;12.50;54.00;;;;;;5109202;27;20475;-83
2023/04/07 01:02:54;;;;;;;10.60;4.90;;;12.50;54.50;;;;;;5074605;28;21105;-82
2023/04/07 01:05:30;;;;;;;7.93;5.30;;;12.40;54.30;;;;;;5077057;28;20447;-84
2023/04/07 01:08:05;;;;;;;7.43;5.23;;;12.30;55.40;;;;;;5096307;27;20467;-82
2023/04/07 01:10:41;;;;;;;6.57;5.30;;;12.30;55.10;;;;;;5087675;28;21132;-83
2023/04/07 01:13:23;;;;;;;7.63;5.43;;;12.40;55.00;;;;;;5068953;28;20457;-84
2023/04/07 01:15:56;;;;;;;7.10;5.43;;;12.40;54.70;;;;;;5083774;28;20581;-84
2023/04/07 01:18:31;;;;;;;7.13;5.47;;;12.50;54.70;;;;;;5091594;28;20454;-82
2023/04/07 01:21:04;;;;;;;9.47;6.50;;;12.50;54.70;;;;;;5093138;28;20519;-84
2023/04/07 01:23:59;;;;;;;7.57;5.60;;;12.40;54.80;;;;;;5085604;28;20461;-84
2023/04/07 01:26:29;;;;;;;8.63;5.70;;;12.60;54.90;;;;;;5093564;27;20443;-83
2023/04/07 01:29:11;;;;;;;10.70;6.00;;;12.80;55.20;;;;;;5092128;28;20572;-83
2023/04/07 01:31:41;;;;;;;8.33;6.27;;;12.50;54.30;;;;;;5108011;27;20509;-84
2023/04/07 01:34:10;;;;;;;7.43;5.67;;;12.40;54.70;;;;;;5093646;28;20473;-84
2023/04/07 01:36:38;;;;;;;7.27;4.63;;;12.30;55.20;;;;;;5109581;27;20929;-84
2023/04/07 01:39:07;;;;;;;6.73;5.70;;;12.30;55.30;;;;;;5093358;28;20471;-84
2023/04/07 01:41:34;;;;;;;11.77;5.63;;;12.20;55.30;;;;;;5091908;28;20447;-83
2023/04/07 01:44:02;;;;;;;7.87;5.10;;;12.00;55.90;;;;;;5091044;28;20537;-83
2023/04/07 01:46:30;;;;;;;7.80;5.10;;;11.70;56.80;;;;;;5095817;27;20821;-84
2023/04/07 01:48:59;;;;;;;8.00;5.10;;;11.50;57.70;;;;;;5090838;28;20586;-83
2023/04/07 01:51:27;;;;;;;6.40;4.90;;;11.40;57.80;;;;;;5092184;27;20447;-83
2023/04/07 01:53:54;;;;;;;6.97;5.30;;;11.50;58.20;;;;;;5089318;28;20494;-84
2023/04/07 01:56:21;;;;;;;8.83;5.67;;;11.50;57.90;;;;;;5094449;27;22377;-84
2023/04/07 01:58:51;;;;;;;9.00;4.80;;;11.60;58.00;;;;;;5077786;28;20458;-84
2023/04/07 02:01:21;;;;;;;8.83;5.30;;;11.70;58.40;;;;;;5082254;27;20442;-84
2023/04/07 02:03:54;;;;;;;6.60;4.70;;;11.70;58.00;;;;;;5067852;28;20535;-83
2023/04/07 02:06:28;;;;;;;5.67;4.37;;;11.60;57.50;;;;;;5092216;27;20457;-85
2023/04/07 02:08:59;;;;;;;9.23;5.03;;;11.30;58.50;;;;;;5090192;28;20475;-85
2023/04/07 02:11:29;;;;;;;10.33;5.60;;;11.10;58.80;;;;;;5106630;27;20475;-83
2023/04/07 02:14:04;;;;;;;6.40;4.63;;;11.20;59.10;;;;;;5083130;28;20453;-84
2023/04/07 02:16:37;;;;;;;8.23;5.50;;;11.30;59.20;;;;;;5082968;28;20596;-84
2023/04/07 02:19:05;;;;;;;10.00;5.83;;;11.30;58.90;;;;;;5074478;28;20448;-83
2023/04/07 02:21:35;;;;;;;9.23;4.97;;;11.30;58.80;;;;;;5091007;28;20475;-82
2023/04/07 02:24:02;;;;;;;8.80;5.90;;;11.20;59.10;;;;;;5085403;28;20453;-84
2023/04/07 02:26:34;;;;;;;13.97;7.00;;;11.10;59.40;;;;;;5074637;28;21032;-83
2023/04/07 02:29:01;;;;;;;10.50;6.47;;;11.30;59.50;;;;;;5072558;28;20476;-84
2023/04/07 02:31:28;;;;;;;9.47;6.47;;;11.40;59.10;;;;;;5091674;27;20448;-81
2023/04/07 02:33:55;;;;;;;9.50;6.43;;;11.40;58.60;;;;;;5092345;28;20446;-84
2023/04/07 02:36:22;;;;;;;7.60;5.37;;;11.20;59.20;;;;;;5060527;27;20540;-82
2023/04/07 02:38:51;;;;;;;7.27;5.60;;;11.10;59.80;;;;;;5086288;28;20486;-84
2023/04/07 02:41:18;;;;;;;7.57;5.40;;;11.10;59.50;;;;;;5090136;27;20522;-83
2023/04/07 02:43:45;;;;;;;9.03;5.90;;;11.10;59.90;;;;;;5088388;28;20486;-83
2023/04/07 02:46:12;;;;;;;8.30;5.87;;;11.30;59.50;;;;;;5090993;28;20446;-83
2023/04/07 02:48:39;;;;;;;8.83;5.90;;;11.30;59.40;;;;;;5089203;27;20468;-84
2023/04/07 02:51:06;;;;;;;10.77;6.73;;;11.40;59.00;;;;;;5090454;28;20492;-83
2023/04/07 02:53:33;;;;;;;10.93;6.37;;;11.20;59.40;;;;;;5087455;28;20935;-84
2023/04/07 02:56:01;;;;;;;8.73;6.10;;;11.10;59.90;;;;;;5091680;28;20448;-82
2023/04/07 02:58:28;;;;;;;7.67;5.93;;;11.20;59.80;;;;;;5082654;28;20455;-83
2023/04/07 03:00:55;;;;;;;10.83;7.10;;;11.30;59.40;;;;;;5089634;27;20472;-83
2023/04/07 03:03:27;;;;;;;10.07;6.73;;;11.40;59.50;;;;;;5071925;27;20450;-84
2023/04/07 03:06:02;;;;;;;12.73;5.90;;;11.40;59.10;;;;;;5072733;28;20838;-84
2023/04/07 03:08:31;;;;;;;9.20;6.50;;;11.40;59.50;;;;;;5071002;28;20538;-84
2023/04/07 03:10:58;;;;;;;11.90;6.17;;;11.40;59.70;;;;;;5089284;28;20499;-83
2023/04/07 03:13:31;;;;;;;9.90;6.50;;;11.40;59.40;;;;;;5086994;28;20458;-82
2023/04/07 03:15:58;;;;;;;11.47;6.67;;;11.60;59.40;;;;;;5087552;28;20534;-82
2023/04/07 03:18:27;;;;;;;9.47;6.57;;;11.70;58.60;;;;;;5085863;28;22739;-84
2023/04/07 03:21:00;;;;;;;8.40;6.30;;;11.70;58.30;;;;;;5090742;28;20555;-84
2023/04/07 03:23:28;;;;;;;10.03;6.63;;;11.70;58.50;;;;;;5066071;28;20536;-82
2023/04/07 03:25:57;;;;;;;14.67;7.67;;;11.80;58.60;;;;;;5071336;28;20476;-83
2023/04/07 03:28:30;;;;;;;9.83;6.37;;;11.90;58.30;;;;;;5071563;28;20464;-82
2023/04/07 03:30:57;;;;;;;11.67;7.27;;;12.00;57.90;;;;;;5063426;28;20581;-82
2023/04/07 03:33:24;;;;;;;16.70;7.07;;;12.10;58.00;;;;;;5076544;28;20536;-83
2023/04/07 03:35:53;;;;;;;10.10;6.53;;;12.20;57.70;;;;;;5077925;28;20542;-84
2023/04/07 03:38:21;;;;;;;10.33;7.70;;;12.30;56.80;;;;;;5077298;27;20486;-84
2023/04/07 03:40:52;;;;;;;11.67;6.20;;;12.00;56.90;;;;;;5071076;28;20474;-84
2023/04/07 03:43:21;;;;;;;9.60;6.40;;;12.10;57.90;;;;;;5074735;28;20979;-83
2023/04/07 03:45:50;;;;;;;11.97;7.17;;;12.20;57.60;;;;;;5102555;27;20534;-83
2023/04/07 03:48:19;;;;;;;9.27;6.57;;;12.30;57.50;;;;;;5079279;28;20487;-84
2023/04/07 03:50:57;;;;;;;10.20;7.07;;;12.40;57.20;;;;;;5089567;27;20466;-84
2023/04/07 03:53:24;;;;;;;11.10;6.37;;;12.40;57.80;;;;;;5106886;27;20447;-84
2023/04/07 03:55:52;;;;;;;9.43;6.77;;;12.20;57.10;;;;;;5087213;28;20554;-85
2023/04/07 03:58:30;;;;;;;12.10;7.50;;;12.10;57.30;;;;;;5070207;28;20465;-83
2023/04/07 04:00:58;;;;;;;10.27;6.93;;;12.20;58.00;;;;;;5089654;28;20569;-83
2023/04/07 04:03:26;;;;;;;10.40;7.33;;;12.30;58.10;;;;;;5104407;27;20542;-83
2023/04/07 04:06:16;;;;;;;11.50;6.87;;;12.40;57.90;;;;;;5078005;28;20454;-83
2023/04/07 04:08:43;;;;;;;17.63;7.07;;;12.40;57.20;;;;;;5070332;28;20924;-85
2023/04/07 04:11:11;;;;;;;14.20;8.37;;;12.30;57.60;;;;;;5061850;28;20447;-84
2023/04/07 04:13:45;;;;;;;11.73;8.10;;;12.30;57.60;;;;;;5105811;27;20466;-83
2023/04/07 04:16:14;;;;;;;10.10;7.10;;;12.30;57.10;;;;;;5086658;28;20945;-83
2023/04/07 04:18:42;;;;;;;15.33;9.23;;;12.30;57.60;;;;;;5070819;28;20443;-84
2023/04/07 04:21:11;;;;;;;9.60;7.00;;;12.30;56.90;;;;;;5071583;28;20452;-83
2023/04/07 04:23:42;;;;;;;11.87;7.20;;;12.40;57.20;;;;;;5069055;28;20527;-83
2023/04/07 04:26:09;;;;;;;11.33;7.40;;;12.20;56.80;;;;;;5090283;28;20444;-84
2023/04/07 04:28:38;;;;;;;11.50;6.77;;;11.80;57.30;;;;;;5080684;28;20505;-83
2023/04/07 04:31:07;;;;;;;18.00;8.70;;;11.70;58.20;;;;;;5091438;28;20494;-86
2023/04/07 04:33:41;;;;;;;10.40;7.47;;;11.80;58.40;;;;;;5076554;28;20501;-85
2023/04/07 04:36:08;;;;;;;15.03;7.07;;;11.80;58.70;;;;;;5069020;28;20525;-84
2023/04/07 04:38:36;;;;;;;11.70;8.80;;;11.80;58.50;;;;;;5103434;27;21002;-84
2023/04/07 04:41:15;;;;;;;12.80;8.67;;;12.00;58.80;;;;;;5106309;27;20534;-84
2023/04/07 04:43:42;;;;;;;11.10;7.50;;;11.90;58.60;;;;;;5077851;28;20453;-82
2023/04/07 04:46:11;;;;;;;15.03;7.80;;;11.90;58.50;;;;;;5071814;28;20444;-83
2023/04/07 04:48:43;;;;;;;15.13;9.30;;;11.90;58.60;;;;;;5077633;28;20509;-84
2023/04/07 04:51:10;;;;;;;14.77;9.27;;;12.00;58.50;;;;;;5107240;27;20502;-84
2023/04/07 04:53:39;;;;;;;13.63;8.37;;;11.60;58.80;;;;;;5086616;28;20456;-83
2023/04/07 04:56:07;;;;;;;12.60;9.00;;;11.80;59.40;;;;;;5071806;28;20472;-84
2023/04/07 04:58:47;;;;;;;12.23;8.53;;;12.00;59.40;;;;;;5087812;28;20451;-82
2023/04/07 05:01:22;;;;;;;12.80;9.40;;;12.10;59.20;;;;;;5071089;28;20450;-83
2023/04/07 05:03:56;;;;;;;17.23;8.73;;;12.20;59.10;;;;;;5097317;28;20474;-84
2023/04/07 05:06:28;;;;;;;16.27;10.00;;;12.40;58.90;;;;;;5077298;28;20824;-84
2023/04/07 05:08:58;;;;;;;16.57;10.87;;;12.40;58.30;;;;;;5103208;28;20452;-84
2023/04/07 05:11:30;;;;;;;14.20;9.90;;;12.50;58.30;;;;;;5081407;28;20460;-82
2023/04/07 05:13:57;;;;;;;16.47;10.40;;;12.50;58.10;;;;;;5090313;28;20469;-83
2023/04/07 05:16:25;;;;;;;18.63;9.63;;;12.50;58.20;;;;;;5089885;28;20504;-84
2023/04/07 05:18:52;;;;;;;11.40;8.90;;;12.60;58.20;;;;;;5085892;28;20469;-85
2023/04/07 05:21:21;;;;;;;16.00;9.03;;;12.60;58.20;;;;;;5087057;28;20455;-84
2023/04/07 05:23:50;;;;;;;14.50;10.17;;;12.60;58.20;;;;;;5085943;28;20443;-83
2023/04/07 05:26:17;;;;;;;17.10;10.20;;;12.60;58.20;;;;;;5072197;28;20957;-84
2023/04/07 05:28:45;;;;;;;17.07;9.23;;;12.60;58.10;;;;;;5104202;27;20443;-84
2023/04/07 05:31:18;;;;;;;16.10;9.87;;;12.60;57.80;;;;;;5104178;27;20512;-82
2023/04/07 05:33:47;;;;;;;17.17;8.97;;;12.70;57.80;;;;;;5105341;27;20535;-85
2023/04/07 05:36:15;;;;;;;16.00;9.13;;;12.60;57.70;;;;;;5071877;28;20546;-85
2023/04/07 05:38:44;;;;;;;15.07;9.30;;;12.70;57.90;;;;;;5073286;28;21234;-83
2023/04/07 05:41:15;;;;;;;14.80;9.53;;;12.70;57.80;;;;;;5077327;28;20862;-83
2023/04/07 05:43:41;;;;;;;21.90;11.00;;;12.70;57.60;;;;;;5086763;28;20547;-83
2023/04/07 05:46:09;;;;;;;15.00;9.33;;;12.70;57.90;;;;;;5074585;28;20531;-84
2023/04/07 05:48:45;;;;;;;17.43;10.33;;;12.70;58.20;;;;;;5075864;28;20459;-83
2023/04/07 05:51:14;;;;;;;22.23;10.17;;;12.70;58.00;;;;;;5077513;28;20483;-84
2023/04/07 05:53:41;;;;;;;18.43;10.87;;;12.70;58.10;;;;;;5093116;28;20466;-85
2023/04/07 05:56:09;;;;;;;16.37;10.10;;;12.70;58.30;;;;;;5074511;28;20544;-83
2023/04/07 05:58:42;;;;;;;18.73;10.80;;;12.70;58.40;;;;;;5077932;28;20443;-84
2023/04/07 06:01:10;;;;;;;20.90;12.63;;;12.60;58.70;;;;;;5080576;28;20470;-83
2023/04/07 06:03:39;;;;;;;19.03;11.50;;;12.50;58.10;;;;;;5090323;28;20448;-84
2023/04/07 06:06:19;;;;;;;23.17;11.80;;;12.50;58.30;;;;;;5073630;27;20876;-85
2023/04/07 06:08:46;;;;;;;21.00;12.63;;;12.20;58.60;;;;;;5076379;28;20554;-83
2023/04/07 06:11:15;;;;;;;16.67;10.70;;;12.20;59.00;;;;;;5109265;27;20528;-83
2023/04/07 06:13:43;;;;;;;21.63;11.20;;;12.20;59.20;;;;;;5082670;28;20840;-83
2023/04/07 06:16:10;;;;;;;20.67;12.03;;;12.10;59.00;;;;;;5082641;28;20534;-84
2023/04/07 06:18:37;;;;;;;19.60;11.97;;;12.00;59.80;;;;;;5091023;27;20447;-83
2023/04/07 06:21:07;;;;;;;21.93;12.90;;;12.00;59.60;;;;;;5081831;28;20464;-83
2023/04/07 06:23:34;;;;;;;21.70;13.00;;;12.00;59.60;;;;;;5083003;27;20522;-84
2023/04/07 06:26:01;;;;;;;27.87;14.40;;;12.20;59.90;;;;;;5092902;28;20534;-83
2023/04/07 06:28:31;;;;;;;21.97;12.93;;;12.30;59.80;;;;;;5078125;28;20444;-82
2023/04/07 06:30:59;;;;;;;23.30;12.30;;;12.30;59.60;;;;;;5078356;28;20484;-81
2023/04/07 06:33:27;;;;;;;22.80;12.60;;;12.30;58.90;;;;;;5076944;28;20881;-84
2023/04/07 06:35:55;;;;;;;20.83;11.80;;;12.10;58.90;;;;;;5091474;28;20597;-84
2023/04/07 06:38:22;;;;;;;23.23;15.10;;;12.10;59.10;;;;;;5084375;28;20452;-82
2023/04/07 06:40:49;;;;;;;20.07;11.80;;;11.70;59.50;;;;;;5090756;27;20460;-84
2023/04/07 06:43:16;;;;;;;23.20;10.77;;;11.60;60.20;;;;;;5090154;27;20448;-83
2023/04/07 06:45:52;;;;;;;25.00;16.10;;;11.70;60.70;;;;;;5079295;28;20458;-85
2023/04/07 06:48:19;;;;;;;26.83;16.40;;;11.80;60.60;;;;;;5090039;27;20458;-83
2023/04/07 06:50:46;;;;;;;35.33;18.93;;;11.80;60.90;;;;;;5085233;28;20514;-82
2023/04/07 06:53:14;;;;;;;45.53;28.97;;;12.10;61.00;;;;;;5089544;27;20452;-83
2023/04/07 06:55:41;;;;;;;45.10;28.20;;;12.30;60.40;;;;;;5087125;28;20439;-85
2023/04/07 06:58:08;;;;;;;32.90;20.83;;;12.30;60.30;;;;;;5086384;28;20509;-84
2023/04/07 07:00:35;;;;;;;30.13;16.93;;;12.40;59.70;;;;;;5087802;28;21040;-84
2023/04/07 07:03:04;;;;;;;28.33;16.13;;;12.50;59.10;;;;;;5088562;28;21165;-81
2023/04/07 07:05:31;;;;;;;26.13;18.40;;;12.60;59.30;;;;;;5089117;28;20449;-83
2023/04/07 07:07:58;;;;;;;22.50;13.67;;;12.60;58.90;;;;;;5090944;28;20451;-80
2023/04/07 07:10:25;;;;;;;23.80;14.90;;;12.60;59.10;;;;;;5087770;28;20567;-82
2023/04/07 07:12:52;;;;;;;24.87;14.00;;;12.60;59.30;;;;;;5071914;28;20459;-82
2023/04/07 07:15:19;;;;;;;19.53;12.27;;;12.60;58.70;;;;;;5091268;27;20444;-83
2023/04/07 07:17:46;;;;;;;20.80;11.97;;;12.60;58.80;;;;;;5090295;28;20947;-83
2023/04/07 07:20:15;;;;;;;26.27;15.07;;;12.50;58.80;;;;;;5088795;28;20459;-83
2023/04/07 07:22:42;;;;;;;25.87;14.97;;;12.50;59.10;;;;;;5088850;27;21122;-82
2023/04/07 07:25:10;;;;;;;24.37;13.77;;;12.40;59.30;;;;;;5086352;28;20524;-81
2023/04/07 07:27:37;;;;;;;23.00;12.70;;;12.50;59.60;;;;;;5087462;27;20776;-82
2023/04/07 07:30:05;;;;;;;22.63;13.37;;;12.50;59.70;;;;;;5091241;28;20478;-82
2023/04/07 07:32:32;;;;;;;23.00;12.30;;;12.70;59.70;;;;;;5090235;27;20459;-83
2023/04/07 07:34:59;;;;;;;18.80;13.10;;;12.70;59.40;;;;;;5072677;28;20455;-83
2023/04/07 07:37:27;;;;;;;23.53;13.13;;;12.80;59.40;;;;;;5088337;28;20478;-83
2023/04/07 07:39:55;;;;;;;20.30;12.57;;;12.70;59.60;;;;;;5104984;27;20473;-83
2023/04/07 07:42:22;;;;;;;25.70;14.80;;;12.50;59.20;;;;;;5087034;28;20447;-81
2023/04/07 07:44:49;;;;;;;21.33;13.70;;;12.30;60.10;;;;;;5088153;28;20457;-83
2023/04/07 07:47:16;;;;;;;21.50;14.70;;;12.30;60.00;;;;;;5089762;28;21124;-83
2023/04/07 07:49:43;;;;;;;24.60;13.43;;;12.40;60.50;;;;;;5085860;28;21307;-82
2023/04/07 07:52:10;;;;;;;24.53;14.17;;;12.50;60.80;;;;;;5088686;28;20467;-84
2023/04/07 07:54:39;;;;;;;22.87;13.77;;;12.70;60.80;;;;;;5083761;28;20452;-82
2023/04/07 07:57:06;;;;;;;26.03;13.97;;;12.80;60.20;;;;;;5090832;28;20446;-82
2023/04/07 07:59:33;;;;;;;21.57;12.63;;;12.80;59.90;;;;;;5089196;27;20502;-83
2023/04/07 08:02:00;;;;;;;22.80;14.80;;;12.80;59.90;;;;;;5082641;28;20477;-82
2023/04/07 08:04:27;;;;;;;22.20;14.93;;;12.90;59.50;;;;;;5086676;28;20444;-84
2023/04/07 08:06:54;;;;;;;27.60;14.53;;;12.90;59.80;;;;;;5089362;28;20454;-83
2023/04/07 08:09:21;;;;;;;30.67;17.13;;;12.80;59.80;;;;;;5101234;27;20503;-83
2023/04/07 08:11:50;;;;;;;23.20;14.17;;;12.50;59.30;;;;;;5085672;27;20475;-83
2023/04/07 08:14:17;;;;;;;25.63;13.60;;;12.60;59.40;;;;;;5089858;28;20542;-83
2023/04/07 08:16:44;;;;;;;22.93;14.53;;;12.70;59.90;;;;;;5071001;28;20552;-83
2023/04/07 08:19:12;;;;;;;21.40;12.60;;;12.80;60.30;;;;;;5089009;28;21444;-83
2023/04/07 08:21:39;;;;;;;21.70;13.10;;;12.90;59.70;;;;;;5085985;28;20447;-82
2023/04/07 08:24:07;;;;;;;20.40;12.50;;;13.00;59.40;;;;;;5088233;28;20446;-82
2023/04/07 08:26:34;;;;;;;23.20;13.37;;;13.20;59.60;;;;;;5086165;28;20445;-82
2023/04/07 08:29:02;;;;;;;27.13;16.80;;;13.20;59.30;;;;;;5088732;28;20955;-81
2023/04/07 08:31:29;;;;;;;18.83;13.40;;;13.10;59.30;;;;;;5086197;28;20781;-81
2023/04/07 08:33:57;;;;;;;28.33;14.00;;;13.10;59.00;;;;;;5054485;28;20511;-83
2023/04/07 08:36:25;;;;;;;23.10;12.90;;;13.00;59.70;;;;;;5103563;27;20523;-82
2023/04/07 08:38:52;;;;;;;26.13;13.60;;;12.90;59.30;;;;;;5086124;28;20823;-82
2023/04/07 08:41:25;;;;;;;17.50;12.23;;;13.00;59.30;;;;;;5089058;28;20441;-82
2023/04/07 08:43:53;;;;;;;20.83;11.70;;;12.80;60.00;;;;;;5088611;28;20439;-82
2023/04/07 08:46:22;;;;;;;28.87;14.40;;;12.60;59.30;;;;;;5088082;28;20447;-82
2023/04/07 08:48:52;;;;;;;23.80;14.90;;;12.50;59.40;;;;;;5086858;28;20478;-81
2023/04/07 08:51:27;;;;;;;24.00;14.50;;;12.70;60.10;;;;;;5089398;28;20509;-82
2023/04/07 08:53:58;;;;;;;18.50;12.03;;;12.80;60.00;;;;;;5103437;27;20451;-82
2023/04/07 08:56:25;;;;;;;17.93;12.40;;;12.90;59.50;;;;;;5087327;28;20535;-83
2023/04/07 08:58:54;;;;;;;22.07;12.80;;;12.90;59.80;;;;;;5070389;28;20448;-83
2023/04/07 09:01:23;;;;;;;20.83;12.50;;;12.60;59.30;;;;;;5072808;28;20696;-81
2023/04/07 09:03:50;;;;;;;21.10;13.83;;;12.80;60.00;;;;;;5085619;28;20825;-82
2023/04/07 09:06:17;;;;;;;19.70;12.07;;;13.00;60.00;;;;;;5069906;28;21026;-78
2023/04/07 09:08:44;;;;;;;17.17;10.50;;;12.90;58.90;;;;;;5086119;28;20689;-83
2023/04/07 09:11:12;;;;;;;19.30;11.93;;;12.60;59.80;;;;;;5086083;28;21015;-82
2023/04/07 09:13:39;;;;;;;18.83;12.60;;;12.70;60.40;;;;;;5084663;28;20826;-82
2023/04/07 09:16:06;;;;;;;19.50;12.10;;;13.00;60.50;;;;;;5090012;28;20844;-83
2023/04/07 09:18:35;;;;;;;21.60;12.27;;;13.20;60.00;;;;;;5086633;28;20435;-80
2023/04/07 09:21:03;;;;;;;19.17;11.77;;;13.40;59.60;;;;;;5090980;27;20550;-83
2023/04/07 09:23:32;;;;;;;21.83;11.47;;;13.20;59.20;;;;;;5091901;28;20490;-82
2023/04/07 09:26:00;;;;;;;18.90;11.53;;;13.30;59.10;;;;;;5071722;28;20460;-83
2023/04/07 09:28:41;;;;;;;19.90;11.37;;;12.90;59.20;;;;;;5088618;28;20814;-82
2023/04/07 09:31:08;;;;;;;16.67;10.33;;;12.80;59.60;;;;;;5092161;28;20482;-83
2023/04/07 09:33:36;;;;;;;16.83;11.30;;;12.70;59.90;;;;;;5090444;27;20513;-82
2023/04/07 09:36:05;;;;;;;19.53;11.50;;;12.90;61.00;;;;;;5091858;27;20444;-83
2023/04/07 09:38:37;;;;;;;18.93;12.33;;;13.00;60.40;;;;;;5048215;28;20454;-83
2023/04/07 09:41:08;;;;;;;19.03;12.50;;;13.10;60.00;;;;;;5091411;27;20469;-83
2023/04/07 09:43:37;;;;;;;17.40;11.20;;;13.40;60.20;;;;;;5070642;28;20984;-83
2023/04/07 09:46:10;;;;;;;17.63;10.70;;;13.40;58.90;;;;;;5090683;28;20470;-83
2023/04/07 09:48:39;;;;;;;20.37;12.27;;;13.60;59.40;;;;;;5087613;28;21240;-83
2023/04/07 09:51:14;;;;;;;20.13;12.30;;;13.50;59.10;;;;;;5089834;28;20486;-84
2023/04/07 09:53:47;;;;;;;21.10;12.40;;;13.40;59.10;;;;;;5070065;28;20462;-83
2023/04/07 09:56:16;;;;;;;22.37;12.27;;;13.30;59.00;;;;;;5090940;27;20444;-82
2023/04/07 09:58:46;;;;;;;23.90;11.90;;;13.40;59.20;;;;;;5089294;27;20458;-83
2023/04/07 10:01:15;;;;;;;20.60;12.00;;;13.40;59.50;;;;;;5071854;28;20470;-83
2023/04/07 10:03:49;;;;;;;30.63;18.10;;;13.90;59.60;;;;;;5091215;27;20604;-84
2023/04/07 10:06:17;;;;;;;29.40;16.50;;;14.00;58.10;;;;;;5092185;27;20450;-83
2023/04/07 10:08:49;;;;;;;17.50;11.60;;;13.90;58.60;;;;;;5069636;28;20644;-83
2023/04/07 10:11:16;;;;;;;18.33;12.67;;;13.90;58.40;;;;;;5088416;28;20506;-83
2023/04/07 10:13:45;;;;;;;17.20;12.50;;;14.00;58.70;;;;;;5087011;28;20459;-83
2023/04/07 10:16:12;;;;;;;17.73;10.80;;;14.00;57.60;;;;;;5090206;28;20454;-83
2023/04/07 10:18:40;;;;;;;14.60;9.33;;;14.10;57.50;;;;;;5086943;27;20968;-83
2023/04/07 10:21:13;;;;;;;14.03;9.27;;;13.80;56.50;;;;;;5092322;28;20555;-83
2023/04/07 10:23:50;;;;;;;17.37;11.07;;;13.70;57.90;;;;;;5062029;28;20479;-83
2023/04/07 10:26:24;;;;;;;19.40;11.70;;;14.00;58.40;;;;;;5059836;28;20451;-83
2023/04/07 10:29:00;;;;;;;14.13;9.13;;;14.30;58.40;;;;;;5072647;28;20457;-88
2023/04/07 10:31:30;;;;;;;11.87;8.17;;;14.30;57.30;;;;;;5095429;28;20574;-88
2023/04/07 10:34:07;;;;;;;14.40;9.90;;;14.20;56.50;;;;;;5045013;28;20542;-88
2023/04/07 10:37:12;;;;;;;11.97;8.40;;;14.50;57.40;;;;;;5054926;28;20533;-88
2023/04/07 10:39:52;;;;;;;13.93;8.97;;;14.80;56.30;;;;;;5057859;28;20467;-89
2023/04/07 10:43:03;;;;;;;12.33;8.03;;;14.50;54.80;;;;;;5055374;28;20435;-89
2023/04/07 10:45:58;;;;;;;13.23;8.53;;;14.00;56.30;;;;;;5053697;28;20447;-88
2023/04/07 10:48:31;;;;;;;10.33;7.80;;;14.10;57.90;;;;;;5084929;28;20455;-88
2023/04/07 10:51:16;;;;;;;11.03;8.30;;;14.30;56.30;;;;;;5079749;28;20565;-87
2023/04/07 10:54:19;;;;;;;12.50;8.00;;;14.50;56.20;;;;;;5089414;28;20447;-89
2023/04/07 10:57:23;;;;;;;10.27;7.80;;;14.30;54.50;;;;;;5054448;28;20854;-91
2023/04/07 11:00:17;;;;;;;9.30;7.10;;;14.20;55.60;;;;;;5087799;27;20474;-91
2023/04/07 11:02:50;;;;;;;13.07;8.73;;;14.40;55.90;;;;;;5073155;28;20450;-91
2023/04/07 11:05:22;;;;;;;24.23;14.23;;;14.50;56.10;;;;;;5078332;28;20896;-90
2023/04/07 11:08:05;;;;;;;12.63;8.80;;;14.40;56.30;;;;;;5057524;28;20487;-91
2023/04/07 11:10:32;;;;;;;11.40;8.03;;;14.70;56.50;;;;;;5089039;27;20468;-90
2023/04/07 11:13:12;;;;;;;10.37;7.83;;;14.90;55.10;;;;;;5059437;28;20463;-90
2023/04/07 11:15:46;;;;;;;11.67;7.30;;;15.10;55.40;;;;;;5057733;28;20443;-89
2023/04/07 11:18:22;;;;;;;14.87;8.17;;;15.30;53.90;;;;;;5096167;28;20476;-91
2023/04/07 11:20:52;;;;;;;11.60;8.67;;;15.40;54.80;;;;;;5093049;28;20477;-90
2023/04/07 11:23:24;;;;;;;13.17;8.70;;;15.50;54.10;;;;;;5092199;28;20961;-89
2023/04/07 11:25:52;;;;;;;8.97;6.90;;;15.50;54.30;;;;;;5088003;28;20741;-88
2023/04/07 11:28:21;;;;;;;14.40;8.23;;;15.30;53.40;;;;;;5095469;28;20455;-90
2023/04/07 11:30:51;;;;;;;11.90;7.10;;;15.20;54.20;;;;;;5056027;28;20573;-89
2023/04/07 11:33:20;;;;;;;11.07;7.80;;;15.20;54.80;;;;;;5103081;28;20466;-89
2023/04/07 11:35:52;;;;;;;11.13;7.17;;;15.00;54.90;;;;;;5076210;27;20554;-89
2023/04/07 11:38:19;;;;;;;15.23;8.43;;;14.80;55.50;;;;;;5115999;27;20534;-90
2023/04/07 11:40:47;;;;;;;11.10;7.60;;;14.90;56.10;;;;;;5050770;27;20992;-90
2023/04/07 11:43:18;;;;;;;14.10;9.30;;;14.90;55.60;;;;;;5078739;28;20453;-89
2023/04/07 11:46:02;;;;;;;11.53;8.80;;;15.10;55.20;;;;;;5046969;28;20454;-89
2023/04/07 11:48:30;;;;;;;18.83;10.37;;;15.10;54.50;;;;;;5101942;28;20438;-88
2023/04/07 11:50:58;;;;;;;10.20;8.00;;;15.20;55.20;;;;;;5081566;27;20925;-87
2023/04/07 11:53:27;;;;;;;11.90;7.50;;;15.10;54.70;;;;;;5096003;28;20473;-88
2023/04/07 11:56:06;;;;;;;13.37;8.17;;;15.20;54.30;;;;;;5082963;28;20488;-89
2023/04/07 11:58:33;;;;;;;10.90;6.97;;;15.40;54.50;;;;;;5076848;28;20446;-88
2023/04/07 12:01:05;;;;;;;9.80;7.80;;;15.60;55.00;;;;;;5062309;28;20570;-89
2023/04/07 12:03:33;;;;;;;11.33;7.00;;;15.90;55.00;;;;;;5075153;28;20443;-89
2023/04/07 12:06:00;;;;;;;10.97;6.97;;;16.00;53.00;;;;;;5056908;28;20455;-89
2023/04/07 12:08:44;;;;;;;10.60;6.90;;;16.00;53.40;;;;;;5052535;28;20452;-88
2023/04/07 12:11:12;;;;;;;12.10;6.93;;;15.90;54.00;;;;;;5094465;28;20472;-87
2023/04/07 12:13:40;;;;;;;12.83;8.30;;;15.50;53.30;;;;;;5051961;28;21013;-88
2023/04/07 12:16:09;;;;;;;12.23;7.90;;;15.50;54.10;;;;;;5079550;28;20450;-88
2023/04/07 12:18:36;;;;;;;10.23;6.67;;;15.50;53.40;;;;;;5101378;27;20440;-91
2023/04/07 12:21:04;;;;;;;11.10;7.60;;;15.50;54.00;;;;;;5060261;28;20475;-89
2023/04/07 12:23:31;;;;;;;10.60;6.93;;;15.90;54.50;;;;;;5048967;28;20479;-87
2023/04/07 12:25:58;;;;;;;8.43;6.07;;;15.80;53.60;;;;;;5098252;28;20454;-89
2023/04/07 12:28:26;;;;;;;11.60;6.07;;;16.20;54.30;;;;;;5051413;28;20448;-89
2023/04/07 12:30:53;;;;;;;9.03;6.87;;;16.50;52.90;;;;;;5075810;28;20490;-87
2023/04/07 12:33:22;;;;;;;10.90;6.20;;;16.60;52.20;;;;;;5085655;28;20467;-87
2023/04/07 12:35:49;;;;;;;9.87;6.70;;;16.80;50.90;;;;;;5092205;28;20453;-86
2023/04/07 12:38:16;;;;;;;8.37;6.13;;;16.90;51.70;;;;;;5089324;28;20541;-87
2023/04/07 12:40:43;;;;;;;10.53;6.50;;;17.10;49.70;;;;;;5054331;28;20919;-87
2023/04/07 12:43:10;;;;;;;9.87;7.20;;;17.30;51.20;;;;;;5050855;28;20452;-89
2023/04/07 12:45:37;;;;;;;11.67;7.00;;;17.30;50.20;;;;;;5075462;28;20546;-87
2023/04/07 12:48:04;;;;;;;14.60;6.70;;;17.40;49.90;;;;;;5053823;28;20534;-87
2023/04/07 12:50:35;;;;;;;8.67;6.80;;;17.60;50.30;;;;;;5090097;28;20553;-86